Time;durP1;ratioP1;P1;durP2;ratioP2;P2;SDS_P1;SDS_P2;PMS_P1;PMS_P2;Temp;Humidity;BMP_temperature;BMP_pressure;BME280_temperature;BME280_humidity;BME280_pressure;Samples;Min_cycle;Max_cycle;Signal;HPM_P1;HPM_P2
2022/08/08 00:01:24;;;;;;;;;;;;;;;;;;4893537;29;19934;-72
2022/08/08 00:04:12;;;;;;;;;;;;;;;;;;4891701;29;20025;-72
2022/08/08 00:06:42;;;;;;;;;;;;;;;;;;4891204;29;20035;-72
2022/08/08 00:09:09;;;;;;;;;;;;;;;;;;4892402;29;19935;-73
2022/08/08 00:11:38;;;;;;;;;;;;;;;;;;4892447;29;20011;-72
2022/08/08 00:14:26;;;;;;;;;;;;;;;;;;4890701;29;20025;-71
2022/08/08 00:17:13;;;;;;;;;;;;;;;;;;4891062;29;20360;-72
2022/08/08 00:19:49;;;;;;;;;;;;;;;;;;4891919;29;19931;-73
2022/08/08 00:22:18;;;;;;;;;;;;;;;;;;4892336;29;20404;-72
2022/08/08 00:24:45;;;;;;;;;;;;;;;;;;4892380;29;20022;-72
2022/08/08 00:27:12;;;;;;;;;;;;;;;;;;4891740;29;19938;-74
2022/08/08 00:29:40;;;;;;;;;;;;;;;;;;4890262;29;19934;-74
2022/08/08 00:32:10;;;;;;;;;;;;;;;;;;4889645;29;20426;-73
2022/08/08 00:37:36;;;;;;;;;;;;;;;;;;4891422;29;19931;-73
2022/08/08 00:40:14;;;;;;;;;;;;;;;;;;4891544;29;20028;-72
2022/08/08 00:43:01;;;;;;;;;;;;;;;;;;4873441;29;19932;-74
2022/08/08 00:45:32;;;;;;;;;;;;;;;;;;4872224;29;19932;-73
2022/08/08 00:47:59;;;;;;;;;;;;;;;;;;4875353;29;19931;-72
2022/08/08 00:50:31;;;;;;;;;;;;;;;;;;4882812;29;20403;-73
2022/08/08 00:52:58;;;;;;;;;;;;;;;;;;4891792;29;19927;-74
2022/08/08 00:55:25;;;;;;;;;;;;;;;;;;4892154;29;19931;-73
2022/08/08 00:58:13;;;;;;;;;;;;;;;;;;4890258;29;19932;-72
2022/08/08 01:00:41;;;;;;;;;;;;;;;;;;4901786;29;19927;-73
2022/08/08 01:03:09;;;;;;;;;;;;;;;;;;4891398;29;20611;-72
2022/08/08 01:05:58;;;;;;;;;;;;;;;;;;4886923;29;20038;-72
2022/08/08 01:08:33;;;;;;;;;;;;;;;;;;4927448;23;19991;-82
2022/08/08 01:11:01;;;;;;;;;;;;;;;;;;4907349;29;19936;-83
2022/08/08 01:13:34;;;;;;;;;;;;;;;;;;4906357;29;20030;-82
2022/08/08 01:16:10;;;;;;;;;;;;;;;;;;4908474;29;20011;-82
2022/08/08 01:18:37;;;;;;;;;;;;;;;;;;4900836;29;19916;-82
2022/08/08 01:21:21;;;;;;;;;;;;;;;;;;4876599;29;19939;-82
2022/08/08 01:24:00;;;;;;;;;;;;;;;;;;4895487;29;19935;-84
2022/08/08 01:26:33;;;;;;;;;;;;;;;;;;4869109;29;19991;-84
2022/08/08 01:29:00;;;;;;;;;;;;;;;;;;4884433;29;19968;-83
2022/08/08 01:31:34;;;;;;;;;;;;;;;;;;4900849;29;19931;-84
2022/08/08 01:34:21;;;;;;;;;;;;;;;;;;4889097;29;19935;-83
2022/08/08 01:36:50;;;;;;;;;;;;;;;;;;4882285;29;19939;-83
2022/08/08 01:39:21;;;;;;;;;;;;;;;;;;4891128;29;19946;-84
2022/08/08 01:41:50;;;;;;;;;;;;;;;;;;4879625;29;20021;-83
2022/08/08 01:44:18;;;;;;;;;;;;;;;;;;4886065;29;19942;-83
2022/08/08 01:46:46;;;;;;;;;;;;;;;;;;4908892;29;19928;-84
2022/08/08 01:49:22;;;;;;;;;;;;;;;;;;4889227;29;20054;-83
2022/08/08 01:52:04;;;;;;;;;;;;;;;;;;4881381;29;20377;-83
2022/08/08 01:54:51;;;;;;;;;;;;;;;;;;4868439;29;19932;-84
2022/08/08 01:57:40;;;;;;;;;;;;;;;;;;4867846;29;19936;-84
2022/08/08 02:00:29;;;;;;;;;;;;;;;;;;4870161;29;19950;-84
2022/08/08 02:03:01;;;;;;;;;;;;;;;;;;4873251;29;19956;-84
2022/08/08 02:05:30;;;;;;;;;;;;;;;;;;4887771;29;20405;-84
2022/08/08 02:08:00;;;;;;;;;;;;;;;;;;4893262;29;19932;-83
2022/08/08 02:10:28;;;;;;;;;;;;;;;;;;4891920;29;19991;-83
2022/08/08 02:12:58;;;;;;;;;;;;;;;;;;4906377;29;19935;-84
2022/08/08 02:15:28;;;;;;;;;;;;;;;;;;4892559;29;20338;-84
2022/08/08 02:17:55;;;;;;;;;;;;;;;;;;4889520;29;19942;-84
2022/08/08 02:20:23;;;;;;;;;;;;;;;;;;4889292;29;20030;-84
2022/08/08 02:23:14;;;;;;;;;;;;;;;;;;4877010;29;19928;-84
2022/08/08 02:25:42;;;;;;;;;;;;;;;;;;4890205;29;19928;-84
2022/08/08 02:28:14;;;;;;;;;;;;;;;;;;4900292;29;19932;-84
2022/08/08 02:30:42;;;;;;;;;;;;;;;;;;4891007;29;20073;-84
2022/08/08 02:33:16;;;;;;;;;;;;;;;;;;4869521;29;19975;-84
2022/08/08 02:35:44;;;;;;;;;;;;;;;;;;4889550;29;19938;-84
2022/08/08 02:38:30;;;;;;;;;;;;;;;;;;4901536;29;19932;-84
2022/08/08 02:41:02;;;;;;;;;;;;;;;;;;4890803;29;19940;-84
2022/08/08 02:43:33;;;;;;;;;;;;;;;;;;4871948;29;19975;-84
2022/08/08 02:46:21;;;;;;;;;;;;;;;;;;4885824;29;19936;-82
2022/08/08 02:48:48;;;;;;;;;;;;;;;;;;4885213;29;19939;-84
2022/08/08 02:51:15;;;;;;;;;;;;;;;;;;4865525;29;19984;-83
2022/08/08 02:53:57;;;;;;;;;;;;;;;;;;4887026;29;19928;-84
2022/08/08 02:56:24;;;;;;;;;;;;;;;;;;4900781;29;19928;-82
2022/08/08 02:58:52;;;;;;;;;;;;;;;;;;4891006;29;19963;-84
2022/08/08 03:01:21;;;;;;;;;;;;;;;;;;4890305;29;19979;-84
2022/08/08 03:03:48;;;;;;;;;;;;;;;;;;4889953;29;19934;-84
2022/08/08 03:06:35;;;;;;;;;;;;;;;;;;4873523;29;20133;-84
2022/08/08 03:09:05;;;;;;;;;;;;;;;;;;4871644;29;20359;-83
2022/08/08 03:11:32;;;;;;;;;;;;;;;;;;4887993;29;19932;-84
2022/08/08 03:14:20;;;;;;;;;;;;;;;;;;4886663;29;20410;-83
2022/08/08 03:17:07;;;;;;;;;;;;;;;;;;4891558;29;20229;-83
2022/08/08 03:19:34;;;;;;;;;;;;;;;;;;4870634;29;19936;-83
2022/08/08 03:22:02;;;;;;;;;;;;;;;;;;4853836;29;19928;-82
2022/08/08 03:24:29;;;;;;;;;;;;;;;;;;4912897;29;19931;-82
2022/08/08 03:26:58;;;;;;;;;;;;;;;;;;4897406;29;19927;-83
2022/08/08 03:29:25;;;;;;;;;;;;;;;;;;4914388;29;19947;-83
2022/08/08 03:35:00;;;;;;;;;;;;;;;;;;4906181;29;19915;-83
2022/08/08 03:37:28;;;;;;;;;;;;;;;;;;4901007;29;19915;-84
2022/08/08 03:40:19;;;;;;;;;;;;;;;;;;4917508;29;19928;-84
2022/08/08 03:43:00;;;;;;;;;;;;;;;;;;4893665;29;19938;-83
2022/08/08 03:45:43;;;;;;;;;;;;;;;;;;4914963;29;19938;-84
2022/08/08 03:48:30;;;;;;;;;;;;;;;;;;4877458;29;19928;-83
2022/08/08 03:51:17;;;;;;;;;;;;;;;;;;4878243;29;19970;-84
2022/08/08 03:53:45;;;;;;;;;;;;;;;;;;4871833;29;19934;-84
2022/08/08 03:56:14;;;;;;;;;;;;;;;;;;4902126;29;19928;-83
2022/08/08 03:58:59;;;;;;;;;;;;;;;;;;4898190;29;19931;-84
2022/08/08 04:01:26;;;;;;;;;;;;;;;;;;4883192;29;19931;-84
2022/08/08 04:03:56;;;;;;;;;;;;;;;;;;4898882;29;19959;-84
2022/08/08 04:06:33;;;;;;;;;;;;;;;;;;4866186;29;19932;-82
2022/08/08 04:09:02;;;;;;;;;;;;;;;;;;4906393;29;19942;-83
2022/08/08 04:11:35;;;;;;;;;;;;;;;;;;4889454;29;20244;-84
2022/08/08 04:14:22;;;;;;;;;;;;;;;;;;4920066;29;19951;-84
2022/08/08 04:17:02;;;;;;;;;;;;;;;;;;4917268;29;20402;-83
2022/08/08 04:19:30;;;;;;;;;;;;;;;;;;4901693;29;19927;-83
2022/08/08 04:22:03;;;;;;;;;;;;;;;;;;4918708;28;19916;-84
2022/08/08 04:24:35;;;;;;;;;;;;;;;;;;4895132;29;19926;-83
2022/08/08 04:27:05;;;;;;;;;;;;;;;;;;4926829;28;19915;-83
2022/08/08 04:29:33;;;;;;;;;;;;;;;;;;4890115;29;19916;-84
2022/08/08 04:32:07;;;;;;;;;;;;;;;;;;4917150;28;19936;-84
2022/08/08 04:34:35;;;;;;;;;;;;;;;;;;4902563;29;19927;-83
2022/08/08 04:37:15;;;;;;;;;;;;;;;;;;4900727;29;20109;-84
2022/08/08 04:39:43;;;;;;;;;;;;;;;;;;4895942;29;20019;-84
2022/08/08 04:42:33;;;;;;;;;;;;;;;;;;4868098;29;19916;-84
2022/08/08 04:45:01;;;;;;;;;;;;;;;;;;4910577;29;19990;-83
2022/08/08 04:47:28;;;;;;;;;;;;;;;;;;4907593;29;19928;-85
2022/08/08 04:49:56;;;;;;;;;;;;;;;;;;4900748;29;19931;-84
2022/08/08 04:52:30;;;;;;;;;;;;;;;;;;4906261;29;19915;-83
2022/08/08 04:55:00;;;;;;;;;;;;;;;;;;4927619;28;19915;-83
2022/08/08 04:57:27;;;;;;;;;;;;;;;;;;4898675;29;19966;-84
2022/08/08 04:59:55;;;;;;;;;;;;;;;;;;4903879;29;19915;-84
2022/08/08 05:02:26;;;;;;;;;;;;;;;;;;4889343;29;19915;-84
2022/08/08 05:04:57;;;;;;;;;;;;;;;;;;4902258;29;19927;-84
2022/08/08 05:07:25;;;;;;;;;;;;;;;;;;4898207;29;19931;-84
2022/08/08 05:09:52;;;;;;;;;;;;;;;;;;4896903;29;19957;-84
2022/08/08 05:12:21;;;;;;;;;;;;;;;;;;4902764;29;19947;-84
2022/08/08 05:14:50;;;;;;;;;;;;;;;;;;4903942;29;19988;-84
2022/08/08 05:17:18;;;;;;;;;;;;;;;;;;4908543;29;19932;-84
2022/08/08 05:19:45;;;;;;;;;;;;;;;;;;4890603;29;19934;-83
2022/08/08 05:22:36;;;;;;;;;;;;;;;;;;4899585;29;19932;-84
2022/08/08 05:25:04;;;;;;;;;;;;;;;;;;4893356;29;20442;-82
2022/08/08 05:27:31;;;;;;;;;;;;;;;;;;4883135;29;20208;-84
2022/08/08 05:30:09;;;;;;;;;;;;;;;;;;4872916;29;19958;-85
2022/08/08 05:32:42;;;;;;;;;;;;;;;;;;4889816;29;19940;-83
2022/08/08 05:35:12;;;;;;;;;;;;;;;;;;4876496;29;19946;-84
2022/08/08 05:37:41;;;;;;;;;;;;;;;;;;4873329;29;19991;-84
2022/08/08 05:40:23;;;;;;;;;;;;;;;;;;4899019;29;20012;-84
2022/08/08 05:42:54;;;;;;;;;;;;;;;;;;4895441;29;20030;-84
2022/08/08 05:45:21;;;;;;;;;;;;;;;;;;4902322;29;19937;-84
2022/08/08 05:47:52;;;;;;;;;;;;;;;;;;4916958;29;20004;-83
2022/08/08 05:50:27;;;;;;;;;;;;;;;;;;4870464;29;19936;-84
2022/08/08 05:52:54;;;;;;;;;;;;;;;;;;4881731;29;19995;-87
2022/08/08 05:55:22;;;;;;;;;;;;;;;;;;4875198;29;20351;-82
2022/08/08 05:57:54;;;;;;;;;;;;;;;;;;4901683;29;20000;-85
2022/08/08 06:00:31;;;;;;;;;;;;;;;;;;4897327;29;19932;-83
2022/08/08 06:03:09;;;;;;;;;;;;;;;;;;4887428;29;19927;-85
2022/08/08 06:05:43;;;;;;;;;;;;;;;;;;4868493;29;19955;-83
2022/08/08 06:08:10;;;;;;;;;;;;;;;;;;4847404;29;19932;-83
2022/08/08 06:10:57;;;;;;;;;;;;;;;;;;4852857;29;19933;-83
2022/08/08 06:13:27;;;;;;;;;;;;;;;;;;4890711;29;20006;-84
2022/08/08 06:15:56;;;;;;;;;;;;;;;;;;4899796;29;19935;-84
2022/08/08 06:18:42;;;;;;;;;;;;;;;;;;4895983;29;19959;-84
2022/08/08 06:21:10;;;;;;;;;;;;;;;;;;4878251;29;19927;-85
2022/08/08 06:23:57;;;;;;;;;;;;;;;;;;4889476;29;19942;-83
2022/08/08 06:26:31;;;;;;;;;;;;;;;;;;4864676;29;19936;-84
2022/08/08 06:29:10;;;;;;;;;;;;;;;;;;4870511;29;19932;-84
2022/08/08 06:31:57;;;;;;;;;;;;;;;;;;4910742;29;19991;-84
2022/08/08 06:34:37;;;;;;;;;;;;;;;;;;4901028;29;19935;-84
2022/08/08 06:37:04;;;;;;;;;;;;;;;;;;4865495;29;19931;-85
2022/08/08 06:39:50;;;;;;;;;;;;;;;;;;4871037;29;19927;-85
2022/08/08 06:42:23;;;;;;;;;;;;;;;;;;4887639;29;19932;-85
2022/08/08 06:44:50;;;;;;;;;;;;;;;;;;4886738;29;20394;-84
2022/08/08 06:47:18;;;;;;;;;;;;;;;;;;4863171;29;19932;-83
2022/08/08 06:49:48;;;;;;;;;;;;;;;;;;4885918;29;19951;-82
2022/08/08 06:52:22;;;;;;;;;;;;;;;;;;4893695;29;19928;-84
2022/08/08 06:54:49;;;;;;;;;;;;;;;;;;4867343;29;19927;-84
2022/08/08 06:57:16;;;;;;;;;;;;;;;;;;4898320;29;19979;-83
2022/08/08 06:59:44;;;;;;;;;;;;;;;;;;4868938;29;19963;-82
2022/08/08 07:02:32;;;;;;;;;;;;;;;;;;4861430;29;20430;-81
2022/08/08 07:04:59;;;;;;;;;;;;;;;;;;4872099;29;20473;-83
2022/08/08 07:07:29;;;;;;;;;;;;;;;;;;4881209;23;19978;31
2022/08/08 07:10:11;;;;;;;;;;;;;;;;;;4862720;29;19927;-73
2022/08/08 07:12:42;;;;;;;;;;;;;;;;;;4885516;29;20022;-73
2022/08/08 07:15:13;;;;;;;;;;;;;;;;;;4871259;29;20051;-73
2022/08/08 07:17:59;;;;;;;;;;;;;;;;;;4880370;29;20345;-73
2022/08/08 07:20:46;;;;;;;;;;;;;;;;;;4869098;29;20281;-73
2022/08/08 07:23:18;;;;;;;;;;;;;;;;;;4854535;29;20023;-73
2022/08/08 07:25:51;;;;;;;;;;;;;;;;;;4863666;29;19935;-73
2022/08/08 07:28:25;;;;;;;;;;;;;;;;;;4882243;29;20297;-72
2022/08/08 07:30:59;;;;;;;;;;;;;;;;;;4870317;29;20448;-74
2022/08/08 07:33:26;;;;;;;;;;;;;;;;;;4887150;29;19932;-73
2022/08/08 07:35:54;;;;;;;;;;;;;;;;;;4886101;29;19939;-74
2022/08/08 07:38:21;;;;;;;;;;;;;;;;;;4852980;29;20411;-73
2022/08/08 07:40:59;;;;;;;;;;;;;;;;;;4876354;29;20094;-72
2022/08/08 07:43:30;;;;;;;;;;;;;;;;;;4882395;29;20340;-73
2022/08/08 07:46:01;;;;;;;;;;;;;;;;;;4866428;29;19931;-74
2022/08/08 07:48:44;;;;;;;;;;;;;;;;;;4865083;29;19936;-73
2022/08/08 07:51:11;;;;;;;;;;;;;;;;;;4867865;29;19936;-74
2022/08/08 07:53:44;;;;;;;;;;;;;;;;;;4868298;29;19971;-73
2022/08/08 07:56:27;;;;;;;;;;;;;;;;;;4873906;29;20050;-72
2022/08/08 07:59:02;;;;;;;;;;;;;;;;;;4881544;29;20052;-74
2022/08/08 08:01:29;;;;;;;;;;;;;;;;;;4866335;29;19935;-74
2022/08/08 08:04:17;;;;;;;;;;;;;;;;;;4849795;29;20712;-72
2022/08/08 08:06:44;;;;;;;;;;;;;;;;;;4861740;29;19943;-73
2022/08/08 08:09:12;;;;;;;;;;;;;;;;;;4873795;29;20293;-73
2022/08/08 08:11:39;;;;;;;;;;;;;;;;;;4867418;29;20022;-73
2022/08/08 08:14:22;;;;;;;;;;;;;;;;;;4871592;29;20469;-72
2022/08/08 08:16:50;;;;;;;;;;;;;;;;;;4873390;29;19950;-74
2022/08/08 08:19:21;;;;;;;;;;;;;;;;;;4884961;29;19950;-72
2022/08/08 08:21:48;;;;;;;;;;;;;;;;;;4888424;29;20524;-75
2022/08/08 08:24:42;;;;;;;;;;;;;;;;;;4892258;29;19936;-72
2022/08/08 08:27:12;;;;;;;;;;;;;;;;;;4869414;29;19932;-72
2022/08/08 08:29:42;;;;;;;;;;;;;;;;;;4870249;29;20428;-71
2022/08/08 08:32:12;;;;;;;;;;;;;;;;;;4861850;29;19932;-70
2022/08/08 08:34:40;;;;;;;;;;;;;;;;;;4871696;29;19931;-72
2022/08/08 08:37:09;;;;;;;;;;;;;;;;;;4865657;29;19959;-72
2022/08/08 08:39:39;;;;;;;;;;;;;;;;;;4885530;29;19943;-72
2022/08/08 08:42:27;;;;;;;;;;;;;;;;;;4881297;29;19938;-72
2022/08/08 08:44:58;;;;;;;;;;;;;;;;;;4866781;29;20384;-74
2022/08/08 08:47:25;;;;;;;;;;;;;;;;;;4868300;29;19928;-73
2022/08/08 08:49:53;;;;;;;;;;;;;;;;;;4871974;29;19935;-72
2022/08/08 08:52:21;;;;;;;;;;;;;;;;;;4869931;29;19936;-73
2022/08/08 08:54:48;;;;;;;;;;;;;;;;;;4868927;29;20420;-73
2022/08/08 08:57:16;;;;;;;;;;;;;;;;;;4867817;29;19938;-72
2022/08/08 08:59:46;;;;;;;;;;;;;;;;;;4882532;29;20039;-72
2022/08/08 09:02:26;;;;;;;;;;;;;;;;;;4869006;29;19932;-73
2022/08/08 09:04:55;;;;;;;;;;;;;;;;;;4879092;29;19936;-73
2022/08/08 09:07:23;;;;;;;;;;;;;;;;;;4861410;29;19991;-71
2022/08/08 09:10:07;;;;;;;;;;;;;;;;;;4875665;29;20035;-72
2022/08/08 09:12:40;;;;;;;;;;;;;;;;;;4864429;29;21724;-73
2022/08/08 09:15:08;;;;;;;;;;;;;;;;;;4867630;29;19928;-72
2022/08/08 09:17:39;;;;;;;;;;;;;;;;;;4866510;29;19979;-72
2022/08/08 09:20:12;;;;;;;;;;;;;;;;;;4871154;29;20281;-73
2022/08/08 09:23:00;;;;;;;;;;;;;;;;;;4884294;29;19934;-73
2022/08/08 09:25:27;;;;;;;;;;;;;;;;;;4871930;29;20619;-71
2022/08/08 09:28:02;;;;;;;;;;;;;;;;;;4886444;29;19934;-71
2022/08/08 09:30:31;;;;;;;;;;;;;;;;;;4868608;29;19931;-72
2022/08/08 09:32:59;;;;;;;;;;;;;;;;;;4871462;29;19991;-70
2022/08/08 09:35:39;;;;;;;;;;;;;;;;;;4862471;29;20142;-71
2022/08/08 09:38:16;;;;;;;;;;;;;;;;;;4864370;29;20026;-70
2022/08/08 09:40:44;;;;;;;;;;;;;;;;;;4854069;29;20555;-72
2022/08/08 09:43:19;;;;;;;;;;;;;;;;;;4854739;29;20396;-70
2022/08/08 09:46:06;;;;;;;;;;;;;;;;;;4855448;29;19932;-72
2022/08/08 09:48:33;;;;;;;;;;;;;;;;;;4858411;29;19928;-73
2022/08/08 09:51:05;;;;;;;;;;;;;;;;;;4860649;29;19936;-73
2022/08/08 09:53:32;;;;;;;;;;;;;;;;;;4859180;29;19932;-70
2022/08/08 09:56:19;;;;;;;;;;;;;;;;;;4867667;29;20076;-72
2022/08/08 09:58:50;;;;;;;;;;;;;;;;;;4854825;29;20016;-73
2022/08/08 10:01:18;;;;;;;;;;;;;;;;;;4867244;29;19935;-73
2022/08/08 10:04:05;;;;;;;;;;;;;;;;;;4855980;29;19936;-73
2022/08/08 10:06:32;;;;;;;;;;;;;;;;;;4863351;29;20396;-73
2022/08/08 10:09:01;;;;;;;;;;;;;;;;;;4874906;29;20030;-73
2022/08/08 10:11:29;;;;;;;;;;;;;;;;;;4865446;29;19931;-73
2022/08/08 10:14:16;;;;;;;;;;;;;;;;;;4870006;29;20031;-74
2022/08/08 10:16:55;;;;;;;;;;;;;;;;;;4867682;29;20480;-73
2022/08/08 10:19:22;;;;;;;;;;;;;;;;;;4857572;29;19936;-72
2022/08/08 10:21:51;;;;;;;;;;;;;;;;;;4871611;29;19932;-71
2022/08/08 10:24:18;;;;;;;;;;;;;;;;;;4868870;29;19947;-72
2022/08/08 10:26:55;;;;;;;;;;;;;;;;;;4874724;29;20139;-72
2022/08/08 10:29:25;;;;;;;;;;;;;;;;;;4863465;29;19943;-73
2022/08/08 10:34:44;;;;;;;;;;;;;;;;;;4864845;29;19936;-72
2022/08/08 10:37:12;;;;;;;;;;;;;;;;;;4871194;29;19933;-72
2022/08/08 10:39:39;;;;;;;;;;;;;;;;;;4875179;29;20392;-74
2022/08/08 10:42:09;;;;;;;;;;;;;;;;;;4874115;29;19927;-72
2022/08/08 10:44:42;;;;;;;;;;;;;;;;;;4872304;29;20383;-74
2022/08/08 10:47:09;;;;;;;;;;;;;;;;;;4872130;29;19934;-73
2022/08/08 10:49:37;;;;;;;;;;;;;;;;;;4873972;29;19936;-72
2022/08/08 10:52:24;;;;;;;;;;;;;;;;;;4862896;29;20015;-73
2022/08/08 10:54:57;;;;;;;;;;;;;;;;;;4871369;29;19967;-72
2022/08/08 10:57:24;;;;;;;;;;;;;;;;;;4874435;29;19934;-72
2022/08/08 10:59:59;;;;;;;;;;;;;;;;;;4863523;29;20360;-73
2022/08/08 11:02:26;;;;;;;;;;;;;;;;;;4870676;29;19935;-73
2022/08/08 11:04:54;;;;;;;;;;;;;;;;;;4863751;29;20031;-72
2022/08/08 11:07:21;;;;;;;;;;;;;;;;;;4865124;29;19943;-73
2022/08/08 11:10:09;;;;;;;;;;;;;;;;;;4865108;29;19993;-73
2022/08/08 11:12:36;;;;;;;;;;;;;;;;;;4862358;29;19932;-73
2022/08/08 11:15:04;;;;;;;;;;;;;;;;;;4866824;29;19950;-74
2022/08/08 11:17:31;;;;;;;;;;;;;;;;;;4865018;29;20392;-73
2022/08/08 11:20:19;;;;;;;;;;;;;;;;;;4858130;29;20409;-73
2022/08/08 11:22:51;;;;;;;;;;;;;;;;;;4861018;29;19928;-73
2022/08/08 11:25:18;;;;;;;;;;;;;;;;;;4869546;29;20014;-74
2022/08/08 11:27:48;;;;;;;;;;;;;;;;;;4859846;29;20408;-73
2022/08/08 11:30:15;;;;;;;;;;;;;;;;;;4867716;29;19939;-73
2022/08/08 11:32:46;;;;;;;;;;;;;;;;;;4868622;29;20397;-73
2022/08/08 11:35:14;;;;;;;;;;;;;;;;;;4863041;29;19936;-73
2022/08/08 11:37:53;;;;;;;;;;;;;;;;;;4857357;29;20015;-72
2022/08/08 11:40:41;;;;;;;;;;;;;;;;;;4868113;29;19931;-73
2022/08/08 11:43:09;;;;;;;;;;;;;;;;;;4863817;29;19934;-73
2022/08/08 11:45:39;;;;;;;;;;;;;;;;;;4865748;29;19927;-73
2022/08/08 11:48:26;;;;;;;;;;;;;;;;;;4870387;29;19931;-73
2022/08/08 11:50:54;;;;;;;;;;;;;;;;;;4861578;29;19928;-72
2022/08/08 11:53:21;;;;;;;;;;;;;;;;;;4863219;29;19943;-74
2022/08/08 11:55:50;;;;;;;;;;;;;;;;;;4868287;29;19980;-73
2022/08/08 11:58:17;;;;;;;;;;;;;;;;;;4870884;29;20380;-73
2022/08/08 12:00:45;;;;;;;;;;;;;;;;;;4873060;29;20527;-74
2022/08/08 12:03:13;;;;;;;;;;;;;;;;;;4867476;29;20100;-74
2022/08/08 12:05:40;;;;;;;;;;;;;;;;;;4857449;29;19939;-74
2022/08/08 12:08:09;;;;;;;;;;;;;;;;;;4874931;29;20468;-74
2022/08/08 12:10:36;;;;;;;;;;;;;;;;;;4868033;29;19942;-74
2022/08/08 12:13:04;;;;;;;;;;;;;;;;;;4869295;29;20400;-74
2022/08/08 12:15:31;;;;;;;;;;;;;;;;;;4872093;29;19942;-73
2022/08/08 12:18:09;;;;;;;;;;;;;;;;;;4871638;29;19939;-74
2022/08/08 12:20:36;;;;;;;;;;;;;;;;;;4860990;29;20304;-73
2022/08/08 12:23:04;;;;;;;;;;;;;;;;;;4864556;29;20043;-74
2022/08/08 12:25:31;;;;;;;;;;;;;;;;;;4860460;29;19938;-73
2022/08/08 12:27:58;;;;;;;;;;;;;;;;;;4861142;29;20357;-74
2022/08/08 12:30:25;;;;;;;;;;;;;;;;;;4862575;29;19932;-74
2022/08/08 12:32:57;;;;;;;;;;;;;;;;;;4860973;29;20354;-75
2022/08/08 12:35:25;;;;;;;;;;;;;;;;;;4876666;29;19932;-74
2022/08/08 12:37:53;;;;;;;;;;;;;;;;;;4870770;29;19932;-72
2022/08/08 12:40:28;;;;;;;;;;;;;;;;;;4867897;29;19928;-73
2022/08/08 12:42:56;;;;;;;;;;;;;;;;;;4869380;29;20035;-74
2022/08/08 12:45:23;;;;;;;;;;;;;;;;;;4864552;29;20042;-70
2022/08/08 12:48:10;;;;;;;;;;;;;;;;;;4862726;29;19942;-73
2022/08/08 12:50:57;;;;;;;;;;;;;;;;;;4857291;29;19932;-74
2022/08/08 12:53:25;;;;;;;;;;;;;;;;;;4878615;29;19928;-74
2022/08/08 12:55:56;;;;;;;;;;;;;;;;;;4868870;29;19975;-75
2022/08/08 12:58:44;;;;;;;;;;;;;;;;;;4870092;29;19938;-74
2022/08/08 13:01:11;;;;;;;;;;;;;;;;;;4861111;29;20397;-75
2022/08/08 13:03:38;;;;;;;;;;;;;;;;;;4862403;29;20011;-74
2022/08/08 13:06:06;;;;;;;;;;;;;;;;;;4870195;29;19932;-74
2022/08/08 13:08:39;;;;;;;;;;;;;;;;;;4870323;29;19943;-75
2022/08/08 13:11:07;;;;;;;;;;;;;;;;;;4871290;29;20324;-74
2022/08/08 13:13:36;;;;;;;;;;;;;;;;;;4870497;29;19932;-74
2022/08/08 13:16:04;;;;;;;;;;;;;;;;;;4874123;29;19959;-74
2022/08/08 13:18:31;;;;;;;;;;;;;;;;;;4871956;29;20468;-74
2022/08/08 13:20:58;;;;;;;;;;;;;;;;;;4872320;29;19991;-74
2022/08/08 13:23:25;;;;;;;;;;;;;;;;;;4872403;29;19934;-75
2022/08/08 13:26:07;;;;;;;;;;;;;;;;;;4872376;29;19931;-74
2022/08/08 13:28:41;;;;;;;;;;;;;;;;;;4886080;29;19939;-74
2022/08/08 13:31:12;;;;;;;;;;;;;;;;;;4870623;29;19927;-75
2022/08/08 13:33:42;;;;;;;;;;;;;;;;;;4871971;29;19935;-75
2022/08/08 13:36:10;;;;;;;;;;;;;;;;;;4872129;29;19984;-74
2022/08/08 13:38:37;;;;;;;;;;;;;;;;;;4874149;29;20050;-74
2022/08/08 13:41:06;;;;;;;;;;;;;;;;;;4876091;29;20422;-74
2022/08/08 13:43:33;;;;;;;;;;;;;;;;;;4875978;29;20047;-73
2022/08/08 13:46:00;;;;;;;;;;;;;;;;;;4875650;29;19932;-73
2022/08/08 13:48:27;;;;;;;;;;;;;;;;;;4873600;29;20030;-74
2022/08/08 13:50:55;;;;;;;;;;;;;;;;;;4875972;29;19975;-74
2022/08/08 13:53:42;;;;;;;;;;;;;;;;;;4875285;29;20026;-74
2022/08/08 13:56:26;;;;;;;;;;;;;;;;;;4873444;29;19947;-74
2022/08/08 13:58:53;;;;;;;;;;;;;;;;;;4874993;29;19934;-74
2022/08/08 14:01:22;;;;;;;;;;;;;;;;;;4889309;29;19938;-76
2022/08/08 14:03:49;;;;;;;;;;;;;;;;;;4875284;29;19999;-74
2022/08/08 14:06:20;;;;;;;;;;;;;;;;;;4875883;29;19980;-73
2022/08/08 14:09:00;;;;;;;;;;;;;;;;;;4873847;29;19936;-74
2022/08/08 14:11:47;;;;;;;;;;;;;;;;;;4875557;29;19935;-74
2022/08/08 14:14:15;;;;;;;;;;;;;;;;;;4875056;29;19954;-73
2022/08/08 14:16:47;;;;;;;;;;;;;;;;;;4869967;29;19952;-73
2022/08/08 14:19:14;;;;;;;;;;;;;;;;;;4873319;29;20665;-73
2022/08/08 14:21:48;;;;;;;;;;;;;;;;;;4873726;29;20404;-73
2022/08/08 14:24:20;;;;;;;;;;;;;;;;;;4874824;29;19935;-73
2022/08/08 14:26:47;;;;;;;;;;;;;;;;;;4873297;29;19964;-73
2022/08/08 14:29:15;;;;;;;;;;;;;;;;;;4869973;29;20207;-73
2022/08/08 14:31:54;;;;;;;;;;;;;;;;;;4873625;29;19976;-74
2022/08/08 14:34:37;;;;;;;;;;;;;;;;;;4868778;29;19928;-74
2022/08/08 14:37:04;;;;;;;;;;;;;;;;;;4868631;29;20539;-74
2022/08/08 14:39:31;;;;;;;;;;;;;;;;;;4867344;29;19932;-74
2022/08/08 14:42:14;;;;;;;;;;;;;;;;;;4870097;29;19928;-74
2022/08/08 14:44:42;;;;;;;;;;;;;;;;;;4873485;29;20411;-73
2022/08/08 14:47:10;;;;;;;;;;;;;;;;;;4874260;29;20026;-74
2022/08/08 14:49:47;;;;;;;;;;;;;;;;;;4874016;29;19966;-74
2022/08/08 14:52:29;;;;;;;;;;;;;;;;;;4870820;29;20026;-74
2022/08/08 14:54:56;;;;;;;;;;;;;;;;;;4873727;29;20400;-74
2022/08/08 14:57:23;;;;;;;;;;;;;;;;;;4873027;29;19928;-74
2022/08/08 15:00:11;;;;;;;;;;;;;;;;;;4867033;29;19954;-75
2022/08/08 15:02:38;;;;;;;;;;;;;;;;;;4864047;29;19932;-74
2022/08/08 15:05:25;;;;;;;;;;;;;;;;;;4880180;29;20026;-75
2022/08/08 15:08:09;;;;;;;;;;;;;;;;;;4868549;29;19928;-73
2022/08/08 15:10:47;;;;;;;;;;;;;;;;;;4871065;29;20027;-74
2022/08/08 15:13:15;;;;;;;;;;;;;;;;;;4870419;29;20030;-72
2022/08/08 15:15:42;;;;;;;;;;;;;;;;;;4867087;29;20444;-74
2022/08/08 15:18:29;;;;;;;;;;;;;;;;;;4870789;29;19936;-73
2022/08/08 15:20:56;;;;;;;;;;;;;;;;;;4872345;29;20030;-73
2022/08/08 15:23:23;;;;;;;;;;;;;;;;;;4870708;29;20354;-73
2022/08/08 15:25:51;;;;;;;;;;;;;;;;;;4872700;29;19932;-73
2022/08/08 15:28:19;;;;;;;;;;;;;;;;;;4873183;29;19928;-73
2022/08/08 15:31:00;;;;;;;;;;;;;;;;;;4871339;29;19942;-74
2022/08/08 15:33:27;;;;;;;;;;;;;;;;;;4873378;29;19935;-74
2022/08/08 15:36:01;;;;;;;;;;;;;;;;;;4873254;29;20515;-74
2022/08/08 15:38:29;;;;;;;;;;;;;;;;;;4870073;29;20460;-73
2022/08/08 15:40:56;;;;;;;;;;;;;;;;;;4873023;29;20403;-73
2022/08/08 15:43:23;;;;;;;;;;;;;;;;;;4873091;29;20336;-73
2022/08/08 15:46:02;;;;;;;;;;;;;;;;;;4869535;29;19940;-73
2022/08/08 15:48:30;;;;;;;;;;;;;;;;;;4891798;29;19967;-72
2022/08/08 15:51:00;;;;;;;;;;;;;;;;;;4871309;29;19928;-73
2022/08/08 15:53:27;;;;;;;;;;;;;;;;;;4870235;29;20293;-73
2022/08/08 15:56:06;;;;;;;;;;;;;;;;;;4873579;29;19970;-73
2022/08/08 15:58:38;;;;;;;;;;;;;;;;;;4868003;29;19969;-74
2022/08/08 16:01:12;;;;;;;;;;;;;;;;;;4872549;29;19928;-74
2022/08/08 16:03:39;;;;;;;;;;;;;;;;;;4867772;29;19992;-75
2022/08/08 16:06:07;;;;;;;;;;;;;;;;;;4869084;29;19932;-73
2022/08/08 16:08:34;;;;;;;;;;;;;;;;;;4868197;29;19978;-74
2022/08/08 16:11:01;;;;;;;;;;;;;;;;;;4865849;29;19987;-73
2022/08/08 16:13:49;;;;;;;;;;;;;;;;;;4877881;29;20311;-73
2022/08/08 16:16:16;;;;;;;;;;;;;;;;;;4863415;29;19931;-73
2022/08/08 16:18:44;;;;;;;;;;;;;;;;;;4866040;29;20310;-73
2022/08/08 16:21:23;;;;;;;;;;;;;;;;;;4870938;29;19958;-73
2022/08/08 16:23:53;;;;;;;;;;;;;;;;;;4868009;29;19928;-73
2022/08/08 16:26:22;;;;;;;;;;;;;;;;;;4867965;29;20335;-73
2022/08/08 16:28:49;;;;;;;;;;;;;;;;;;4869450;29;19940;-73
2022/08/08 16:31:18;;;;;;;;;;;;;;;;;;4869881;29;19967;-73
2022/08/08 16:33:46;;;;;;;;;;;;;;;;;;4867498;29;20041;-73
2022/08/08 16:36:17;;;;;;;;;;;;;;;;;;4865991;29;19975;-73
2022/08/08 16:38:45;;;;;;;;;;;;;;;;;;4868787;29;19996;-73
2022/08/08 16:41:19;;;;;;;;;;;;;;;;;;4869245;29;19936;-72
2022/08/08 16:43:48;;;;;;;;;;;;;;;;;;4863372;29;19936;-74
2022/08/08 16:46:17;;;;;;;;;;;;;;;;;;4863066;29;19938;-73
2022/08/08 16:49:05;;;;;;;;;;;;;;;;;;4863633;29;19975;-74
2022/08/08 16:51:33;;;;;;;;;;;;;;;;;;4867503;29;19927;-72
2022/08/08 16:54:20;;;;;;;;;;;;;;;;;;4870615;29;19928;-73
2022/08/08 16:57:07;;;;;;;;;;;;;;;;;;4867198;29;19931;-73
2022/08/08 16:59:49;;;;;;;;;;;;;;;;;;4866495;29;20004;-73
2022/08/08 17:02:18;;;;;;;;;;;;;;;;;;4864521;29;20356;-73
2022/08/08 17:05:03;;;;;;;;;;;;;;;;;;4869727;29;20365;-73
2022/08/08 17:07:31;;;;;;;;;;;;;;;;;;4870704;29;19974;-73
2022/08/08 17:09:58;;;;;;;;;;;;;;;;;;4872031;29;19932;-73
2022/08/08 17:12:25;;;;;;;;;;;;;;;;;;4874435;29;20030;-73
2022/08/08 17:14:54;;;;;;;;;;;;;;;;;;4875266;29;19936;-73
2022/08/08 17:17:22;;;;;;;;;;;;;;;;;;4874280;29;19931;-72
2022/08/08 17:20:09;;;;;;;;;;;;;;;;;;4877259;29;20364;-73
2022/08/08 17:22:36;;;;;;;;;;;;;;;;;;4877347;29;19935;-73
2022/08/08 17:25:08;;;;;;;;;;;;;;;;;;4876820;29;19928;-73
2022/08/08 17:27:35;;;;;;;;;;;;;;;;;;4874505;29;20392;-73
2022/08/08 17:30:12;;;;;;;;;;;;;;;;;;4875036;29;20041;-74
2022/08/08 17:32:42;;;;;;;;;;;;;;;;;;4876779;29;19932;-73